This is the latest recevied weather packets stored in our database for station/object SP5IZJ-2. If no packets are shown the sender has not sent any weather packets the latest 1 day(s).
| Time | Temp. | Humidity | Pressure | Rain* | Wind** | Luminosity | Snow |
|---|---|---|---|---|---|---|---|
| 1778001951 | 27.78° C | 27% | 996.7 hPa | 0 mm | 0 m/s | - | - |
| 1778001106 | 28.89° C | 26% | 996.9 hPa | 0 mm | 0 m/s | - | - |
| 1778000687 | 28.33° C | 27% | 996.9 hPa | 0 mm | 0 m/s | - | - |
| 1778000267 | 27.78° C | 27% | 996.7 hPa | 0 mm | 0 m/s | - | - |
| 1777999465 | 26.11° C | 28% | 997 hPa | 0 mm | 0 m/s | - | - |
| 1777999049 | 26.11° C | 28% | 997 hPa | 0 mm | 0 m/s | - | - |
| 1777998633 | 26.67° C | 27% | 997.2 hPa | 0 mm | 0 m/s | - | - |
| 1777996488 | 30° C | 25% | 997.2 hPa | 0 mm | 0.45 m/s, 0° | - | - |
| 1777994811 | 28.89° C | 25% | 997.3 hPa | 0 mm | 1.34 m/s, 338° | - | - |
| 1777994389 | 28.89° C | 25% | 997.2 hPa | 0 mm | 1.34 m/s, 0° | - | - |
| 1777993969 | 28.33° C | 23% | 997.3 hPa | 0 mm | 3.58 m/s, 338° | - | - |
| 1777992710 | 29.44° C | 24% | 997.4 hPa | 0 mm | 1.34 m/s, 0° | - | - |
| 1777990611 | 31.11° C | 21% | 997.9 hPa | 0 mm | 0 m/s | - | - |
| 1777989771 | 33.33° C | 21% | 997.9 hPa | 0 mm | 2.24 m/s, 0° | - | - |
| 1777989351 | 35.56° C | 24% | 998 hPa | 0 mm | 0.45 m/s, 0° | - | - |
| 1777988512 | 34.44° C | 25% | 998.2 hPa | 0 mm | 0 m/s | - | - |
| 1777988092 | 31.67° C | 28% | 998.4 hPa | 0 mm | 0 m/s | - | - |
| 1777987252 | 28.33° C | 30% | 998.5 hPa | 0 mm | 0 m/s | - | - |
| 1777985993 | 27.78° C | 30% | 998.7 hPa | 0 mm | 0.89 m/s, 0° | - | - |
| 1777985573 | 27.22° C | 31% | 998.8 hPa | 0 mm | 1.34 m/s, 0° | - | - |
| 1777984313 | 27.78° C | 30% | 999 hPa | 0 mm | 1.79 m/s, 23° | - | - |
| 1777983896 | 27.22° C | 30% | 999.1 hPa | 0 mm | 2.24 m/s, 0° | - | - |
| 1777983474 | 27.78° C | 29% | 999.2 hPa | 0 mm | 3.13 m/s, 0° | - | - |
| 1777982214 | 30.56° C | 27% | 999.4 hPa | 0 mm | 1.79 m/s, 0° | - | - |
| 1777981794 | 30.56° C | 29% | 999.5 hPa | 0 mm | 0.89 m/s, 0° | - | - |
* Rain latest hour (hover to see other rain measurements)
** Current wind speed in m/s (hover to see current wind gust speed)